createdAt,value
2023-05-12T00:01:10.204Z,10.20
2023-05-12T00:03:38.828Z,10.21
2023-05-12T00:06:08.411Z,10.21
2023-05-12T00:08:37.202Z,10.21
2023-05-12T00:11:05.906Z,10.18
2023-05-12T00:13:34.524Z,10.13
2023-05-12T00:16:03.585Z,10.12
2023-05-12T00:18:32.163Z,10.14
2023-05-12T00:21:00.829Z,10.16
2023-05-12T00:23:29.302Z,10.15
2023-05-12T00:25:57.919Z,10.15
2023-05-12T00:28:26.337Z,10.14
2023-05-12T00:30:54.821Z,10.15
2023-05-12T00:33:23.446Z,10.19
2023-05-12T00:35:52.101Z,10.21
2023-05-12T00:38:20.673Z,10.19
2023-05-12T00:40:49.107Z,10.14
2023-05-12T00:43:17.692Z,10.14
2023-05-12T00:45:46.525Z,10.11
2023-05-12T00:48:15.692Z,10.12
2023-05-12T00:50:44.744Z,10.08
2023-05-12T00:53:13.752Z,10.02
2023-05-12T00:55:42.829Z,10.02
2023-05-12T00:58:11.369Z,9.98
2023-05-12T01:00:39.921Z,9.98
2023-05-12T01:03:09.406Z,10.00
2023-05-12T01:05:47.874Z,9.96
2023-05-12T01:08:20.155Z,9.97
2023-05-12T01:10:49.422Z,9.97
2023-05-12T01:13:19.216Z,9.97
2023-05-12T01:15:49.174Z,9.98
2023-05-12T01:18:21.771Z,9.99
2023-05-12T01:20:53.830Z,10.00
2023-05-12T01:23:27.584Z,10.03
2023-05-12T01:26:04.072Z,10.05
2023-05-12T01:28:34.530Z,10.05
2023-05-12T01:31:08.651Z,10.11
2023-05-12T01:33:40.102Z,10.11
2023-05-12T01:36:09.149Z,10.09
2023-05-12T01:38:38.312Z,10.06
2023-05-12T01:41:07.284Z,10.07
2023-05-12T01:43:36.361Z,10.06
2023-05-12T01:46:05.051Z,10.05
2023-05-12T01:48:33.787Z,10.04
2023-05-12T01:51:02.914Z,10.06
2023-05-12T01:53:32.101Z,10.07
2023-05-12T01:56:00.890Z,10.04
2023-05-12T01:58:29.578Z,10.03
2023-05-12T02:00:59.396Z,10.02
2023-05-12T02:03:28.063Z,9.99
2023-05-12T02:05:58.841Z,9.97
2023-05-12T02:08:27.450Z,9.90
2023-05-12T02:11:07.708Z,9.90
2023-05-12T02:13:36.309Z,9.88
2023-05-12T02:17:07.789Z,9.82
2023-05-12T02:19:40.496Z,9.82
2023-05-12T02:22:09.263Z,9.77
2023-05-12T02:24:38.022Z,9.77
2023-05-12T02:27:06.856Z,9.75
2023-05-12T02:29:35.538Z,9.74
2023-05-12T02:32:05.893Z,9.76
2023-05-12T02:35:00.163Z,9.65
2023-05-12T02:37:28.704Z,9.62
2023-05-12T02:39:57.310Z,9.60
2023-05-12T02:42:29.039Z,9.59
2023-05-12T02:44:57.802Z,9.59
2023-05-12T02:47:26.379Z,9.60
2023-05-12T02:49:57.054Z,9.60
2023-05-12T02:52:25.666Z,9.60
2023-05-12T02:54:54.322Z,9.61
2023-05-12T02:57:22.829Z,9.63
2023-05-12T02:59:51.520Z,9.66
2023-05-12T03:02:20.212Z,9.70
2023-05-12T03:04:48.790Z,9.74
2023-05-12T03:07:17.621Z,9.73
2023-05-12T03:09:46.306Z,9.69
2023-05-12T03:12:14.890Z,9.77
2023-05-12T03:14:44.212Z,9.77
2023-05-12T03:17:12.931Z,9.85
2023-05-12T03:19:42.382Z,9.81
2023-05-12T03:22:11.097Z,9.82
2023-05-12T03:24:39.867Z,9.82
2023-05-12T03:27:08.421Z,9.90
2023-05-12T03:29:37.063Z,9.94
2023-05-12T03:32:06.980Z,9.94
2023-05-12T03:34:35.876Z,9.99
2023-05-12T03:37:04.554Z,9.99
2023-05-12T03:39:33.591Z,9.96
2023-05-12T03:42:03.095Z,10.01
2023-05-12T03:44:31.610Z,10.03
2023-05-12T03:47:00.275Z,10.06
2023-05-12T03:49:29.058Z,10.09
2023-05-12T03:51:57.770Z,10.02
2023-05-12T03:54:26.582Z,9.97
2023-05-12T03:56:55.494Z,9.96
2023-05-12T03:59:24.497Z,9.98
2023-05-12T04:01:53.709Z,10.03
2023-05-12T04:04:22.532Z,10.06
2023-05-12T04:06:51.326Z,10.18
2023-05-12T04:09:21.500Z,10.23
2023-05-12T04:11:50.004Z,10.21
2023-05-12T04:14:20.478Z,10.25
2023-05-12T04:16:56.171Z,10.29
2023-05-12T04:19:26.714Z,10.36
2023-05-12T04:21:56.169Z,10.43
2023-05-12T04:24:25.840Z,10.47
2023-05-12T04:26:54.794Z,10.51
2023-05-12T04:29:23.553Z,10.59
2023-05-12T04:31:55.037Z,10.66
2023-05-12T04:34:24.457Z,10.72
2023-05-12T04:36:53.157Z,10.82
2023-05-12T04:39:22.174Z,10.90
2023-05-12T04:41:50.846Z,11.03
2023-05-12T04:44:22.330Z,11.11
2023-05-12T04:46:54.250Z,11.20
2023-05-12T04:49:23.262Z,11.31
2023-05-12T04:51:52.432Z,11.33
2023-05-12T04:54:20.961Z,11.32
2023-05-12T04:56:49.562Z,11.39
2023-05-12T04:59:18.392Z,11.42
2023-05-12T05:01:48.392Z,11.51
2023-05-12T05:04:17.372Z,11.61
2023-05-12T05:06:46.337Z,11.72
2023-05-12T05:09:15.802Z,11.79
2023-05-12T05:11:44.533Z,11.90
2023-05-12T05:14:13.887Z,11.99
2023-05-12T05:16:42.667Z,12.05
2023-05-12T05:19:20.205Z,12.09
2023-05-12T05:21:54.594Z,12.21
2023-05-12T05:24:23.292Z,12.29
2023-05-12T05:26:51.805Z,12.40
2023-05-12T05:29:20.646Z,12.53
2023-05-12T05:31:49.213Z,12.66
2023-05-12T05:34:17.906Z,12.78
2023-05-12T05:36:46.636Z,12.88
2023-05-12T05:39:15.169Z,12.94
2023-05-12T05:41:43.862Z,13.04
2023-05-12T05:44:12.305Z,13.11
2023-05-12T05:46:40.981Z,13.15
2023-05-12T05:49:09.411Z,13.18
2023-05-12T05:51:38.039Z,13.25
2023-05-12T05:54:06.767Z,13.31
2023-05-12T05:56:36.178Z,13.33
2023-05-12T05:59:05.319Z,13.43
2023-05-12T06:01:34.123Z,13.56
2023-05-12T06:04:02.855Z,13.65
2023-05-12T06:06:31.578Z,13.69
2023-05-12T06:09:02.098Z,13.78
2023-05-12T06:11:30.797Z,13.85
2023-05-12T06:13:59.382Z,13.90
2023-05-12T06:16:29.389Z,13.95
2023-05-12T06:18:58.086Z,13.98
2023-05-12T06:21:26.675Z,14.09
2023-05-12T06:23:56.508Z,14.21
2023-05-12T06:26:25.050Z,14.29
2023-05-12T06:28:53.540Z,14.29
2023-05-12T06:31:22.152Z,14.31
2023-05-12T06:33:50.896Z,14.39
2023-05-12T06:36:19.456Z,14.45
2023-05-12T06:38:47.863Z,14.53
2023-05-12T06:41:17.051Z,14.60
2023-05-12T06:43:46.175Z,14.66
2023-05-12T06:46:15.474Z,14.71
2023-05-12T06:48:44.954Z,14.78
2023-05-12T06:51:24.710Z,14.85
2023-05-12T06:53:53.251Z,14.87
2023-05-12T06:56:23.375Z,14.94
2023-05-12T06:58:54.563Z,14.99
2023-05-12T07:01:23.120Z,14.99
2023-05-12T07:03:51.820Z,15.01
2023-05-12T07:06:21.284Z,15.04
2023-05-12T07:08:50.105Z,15.09
2023-05-12T07:11:20.302Z,15.15
2023-05-12T07:13:50.876Z,15.24
2023-05-12T07:16:20.227Z,15.36
2023-05-12T07:18:49.094Z,15.50
2023-05-12T07:21:17.916Z,15.65
2023-05-12T07:23:46.499Z,15.66
2023-05-12T07:26:16.143Z,15.70
2023-05-12T07:28:44.682Z,15.68
2023-05-12T07:31:13.342Z,15.78
2023-05-12T07:33:42.605Z,15.85
2023-05-12T07:36:11.327Z,15.92
2023-05-12T07:38:41.235Z,16.02
2023-05-12T07:41:09.793Z,16.09
2023-05-12T07:43:38.316Z,16.11
2023-05-12T07:46:06.919Z,16.15
2023-05-12T07:48:40.559Z,16.23
2023-05-12T07:51:09.673Z,16.33
2023-05-12T07:53:38.188Z,16.43
2023-05-12T07:56:08.249Z,16.56
2023-05-12T07:58:36.876Z,16.66
2023-05-12T08:01:07.071Z,16.72
2023-05-12T08:03:35.994Z,16.80
2023-05-12T08:06:07.427Z,16.82
2023-05-12T08:08:36.693Z,16.79
2023-05-12T08:11:05.313Z,16.86
2023-05-12T08:13:34.004Z,16.94
2023-05-12T08:16:02.586Z,16.86
2023-05-12T08:18:31.244Z,16.82
2023-05-12T08:20:59.782Z,16.82
2023-05-12T08:23:28.273Z,16.83
2023-05-12T08:25:56.756Z,16.71
2023-05-12T08:28:25.410Z,16.63
2023-05-12T08:30:54.521Z,16.55
2023-05-12T08:33:23.499Z,16.45
2023-05-12T08:35:53.014Z,16.47
2023-05-12T08:38:22.262Z,16.45
2023-05-12T08:41:31.661Z,16.47
2023-05-12T08:44:00.611Z,16.54
2023-05-12T08:46:32.912Z,16.73
2023-05-12T08:49:04.119Z,16.78
2023-05-12T08:51:33.534Z,16.80
2023-05-12T08:54:04.261Z,16.70
2023-05-12T08:59:06.850Z,16.83
2023-05-12T09:01:36.976Z,16.91
2023-05-12T09:04:06.256Z,16.97
2023-05-12T09:06:35.975Z,16.93
2023-05-12T09:09:04.545Z,16.97
2023-05-12T09:11:33.211Z,16.89
2023-05-12T09:14:08.633Z,16.91
2023-05-12T09:16:49.267Z,16.95
2023-05-12T09:19:21.847Z,16.82
2023-05-12T09:21:50.469Z,16.71
2023-05-12T09:24:19.071Z,16.65
2023-05-12T09:26:53.248Z,16.70
2023-05-12T09:29:31.271Z,16.75
2023-05-12T09:32:04.314Z,16.85
2023-05-12T09:34:38.826Z,16.94
2023-05-12T09:37:08.268Z,16.93
2023-05-12T09:39:37.199Z,16.88
2023-05-12T09:42:12.813Z,16.87
2023-05-12T09:44:42.235Z,16.96
2023-05-12T09:47:10.982Z,17.10
2023-05-12T09:49:47.346Z,17.18
2023-05-12T09:52:16.357Z,17.20
2023-05-12T09:54:45.021Z,17.22
2023-05-12T09:57:17.156Z,17.12
2023-05-12T09:59:47.724Z,17.16
2023-05-12T10:02:17.135Z,17.23
2023-05-12T10:05:01.311Z,17.33
2023-05-12T10:07:30.791Z,17.62
2023-05-12T10:10:04.968Z,17.95
2023-05-12T10:12:35.515Z,17.93
2023-05-12T10:15:04.917Z,18.06
2023-05-12T10:17:35.537Z,18.16
2023-05-12T10:20:07.388Z,18.13
2023-05-12T10:22:39.123Z,18.18
2023-05-12T10:25:09.065Z,18.34
2023-05-12T10:27:38.319Z,18.54
2023-05-12T10:30:08.310Z,18.59
2023-05-12T10:32:37.385Z,18.49
2023-05-12T10:35:11.424Z,18.34
2023-05-12T10:37:42.950Z,18.23
2023-05-12T10:40:11.878Z,18.15
2023-05-12T10:42:43.322Z,18.09
2023-05-12T10:45:20.680Z,17.99
2023-05-12T10:47:49.649Z,17.81
2023-05-12T10:50:28.672Z,17.91
2023-05-12T10:52:58.149Z,18.09
2023-05-12T10:55:35.312Z,18.14
2023-05-12T10:58:13.629Z,18.20
2023-05-12T11:00:53.770Z,18.16
2023-05-12T11:03:27.377Z,18.15
2023-05-12T11:06:02.878Z,18.14
2023-05-12T11:08:32.650Z,18.13
2023-05-12T11:11:03.238Z,18.15
2023-05-12T11:13:32.452Z,18.03
2023-05-12T11:16:01.182Z,17.99
2023-05-12T11:18:29.836Z,17.99
2023-05-12T11:20:58.522Z,18.07
2023-05-12T11:23:29.713Z,18.05
2023-05-12T11:25:58.361Z,17.91
2023-05-12T11:28:27.301Z,18.02
2023-05-12T11:30:56.102Z,18.05
2023-05-12T11:33:24.673Z,18.02
2023-05-12T11:35:53.383Z,17.98
2023-05-12T11:38:24.608Z,18.01
2023-05-12T11:40:53.772Z,17.86
2023-05-12T11:43:22.795Z,17.84
2023-05-12T11:45:51.642Z,17.78
2023-05-12T11:48:21.777Z,17.74
2023-05-12T11:50:51.454Z,17.73
2023-05-12T11:53:19.993Z,17.72
2023-05-12T11:55:53.928Z,17.85
2023-05-12T11:58:30.639Z,17.96
2023-05-12T12:01:11.285Z,17.98
2023-05-12T12:03:51.848Z,17.95
2023-05-12T12:06:23.447Z,17.98
2023-05-12T12:08:54.888Z,18.13
2023-05-12T12:11:30.856Z,18.13
2023-05-12T12:14:00.639Z,18.17
2023-05-12T12:16:31.654Z,18.04
2023-05-12T12:19:03.475Z,18.05
2023-05-12T12:21:36.697Z,18.00
2023-05-12T12:24:06.394Z,18.10
2023-05-12T12:26:34.994Z,18.14
2023-05-12T12:29:03.506Z,18.07
2023-05-12T12:31:32.036Z,18.10
2023-05-12T12:34:00.879Z,18.20
2023-05-12T12:36:33.102Z,18.25
2023-05-12T12:39:02.926Z,18.37
2023-05-12T12:41:32.938Z,18.35
2023-05-12T12:44:51.727Z,18.36
2023-05-12T12:47:20.293Z,18.39
2023-05-12T12:49:48.982Z,18.47
2023-05-12T12:52:17.706Z,18.50
2023-05-12T12:54:46.305Z,18.57
2023-05-12T12:57:14.937Z,18.65
2023-05-12T12:59:43.446Z,18.81
2023-05-12T13:02:12.195Z,18.84
2023-05-12T13:04:40.923Z,18.89
2023-05-12T13:07:09.891Z,18.89
2023-05-12T13:09:38.569Z,18.89
2023-05-12T13:12:08.643Z,18.79
2023-05-12T13:14:37.137Z,18.62
2023-05-12T13:17:06.032Z,18.48
2023-05-12T13:19:37.241Z,18.44
2023-05-12T13:22:07.774Z,18.51
2023-05-12T13:24:36.555Z,18.45
2023-05-12T13:27:08.456Z,18.30
2023-05-12T13:29:37.370Z,18.25
2023-05-12T13:32:06.584Z,18.32
2023-05-12T13:34:34.969Z,18.32
2023-05-12T13:37:03.696Z,18.27
2023-05-12T13:39:32.918Z,18.27
2023-05-12T13:42:03.268Z,18.30
2023-05-12T13:44:31.800Z,18.31
2023-05-12T13:47:02.617Z,18.23
2023-05-12T13:49:31.318Z,18.28
2023-05-12T13:51:59.947Z,18.36
2023-05-12T13:54:28.670Z,18.36
2023-05-12T13:56:57.281Z,18.38
2023-05-12T13:59:25.863Z,18.31
2023-05-12T14:01:54.501Z,18.27
2023-05-12T14:04:23.904Z,18.28
2023-05-12T14:06:53.251Z,18.21
2023-05-12T14:09:22.098Z,18.31
2023-05-12T14:11:50.640Z,18.20
2023-05-12T14:14:19.265Z,18.07
2023-05-12T14:16:47.858Z,17.99
2023-05-12T14:19:16.768Z,17.95
2023-05-12T14:21:45.342Z,17.93
2023-05-12T14:24:13.909Z,17.96
2023-05-12T14:26:42.433Z,18.00
2023-05-12T14:29:10.862Z,18.08
2023-05-12T14:31:39.564Z,18.04
2023-05-12T14:34:09.367Z,17.89
2023-05-12T14:36:37.928Z,17.85
2023-05-12T14:39:08.960Z,17.90
2023-05-12T14:41:37.568Z,17.90
2023-05-12T14:44:06.181Z,17.87
2023-05-12T14:46:35.020Z,17.78
2023-05-12T14:49:03.631Z,17.77
2023-05-12T14:51:32.667Z,17.78
2023-05-12T14:54:01.218Z,17.75
2023-05-12T14:56:29.742Z,17.73
2023-05-12T14:58:58.392Z,17.67
2023-05-12T15:01:27.090Z,17.63
2023-05-12T15:03:56.326Z,17.60
2023-05-12T15:06:24.836Z,17.59
2023-05-12T15:08:53.408Z,17.51
2023-05-12T15:11:22.783Z,17.50
2023-05-12T15:13:51.296Z,17.46
2023-05-12T15:16:45.053Z,17.45
2023-05-12T15:19:14.368Z,17.43
2023-05-12T15:22:32.521Z,17.44
2023-05-12T15:25:01.545Z,17.39
2023-05-12T15:27:32.263Z,17.37
2023-05-12T15:30:00.957Z,17.33
2023-05-12T15:32:29.709Z,17.23
2023-05-12T15:34:58.838Z,17.13
2023-05-12T15:37:27.602Z,17.12
2023-05-12T15:39:56.438Z,17.10
2023-05-12T15:42:29.992Z,17.07
2023-05-12T15:45:02.105Z,17.04
2023-05-12T15:47:30.763Z,16.99
2023-05-12T15:49:59.277Z,16.99
2023-05-12T15:52:28.023Z,16.99
2023-05-12T15:54:57.375Z,16.99
2023-05-12T15:57:26.557Z,16.99
2023-05-12T15:59:59.926Z,16.94
2023-05-12T16:02:28.563Z,16.93
2023-05-12T16:04:57.434Z,16.92
2023-05-12T16:07:31.210Z,16.92
2023-05-12T16:09:59.734Z,16.88
2023-05-12T16:12:29.188Z,16.81
2023-05-12T16:14:59.634Z,16.76
2023-05-12T16:17:28.742Z,16.70
2023-05-12T16:19:57.594Z,16.65
2023-05-12T16:22:37.916Z,16.61
2023-05-12T16:25:16.800Z,16.51
2023-05-12T16:27:49.549Z,16.46
2023-05-12T16:30:20.151Z,16.39
2023-05-12T16:32:49.265Z,16.30
2023-05-12T16:35:18.184Z,16.21
2023-05-12T16:37:47.384Z,16.17
2023-05-12T16:40:16.516Z,16.12
2023-05-12T16:42:51.130Z,16.09
2023-05-12T16:45:21.533Z,16.01
2023-05-12T16:48:02.784Z,15.91
2023-05-12T16:50:41.462Z,15.89
2023-05-12T16:53:36.264Z,15.83
2023-05-12T16:56:28.085Z,15.81
2023-05-12T16:58:57.697Z,15.77
2023-05-12T17:01:26.663Z,15.74
2023-05-12T17:03:55.522Z,15.72
2023-05-12T17:06:24.499Z,15.68
2023-05-12T17:08:53.404Z,15.63
2023-05-12T17:11:21.906Z,15.57
2023-05-12T17:13:51.051Z,15.52
2023-05-12T17:16:19.929Z,15.46
2023-05-12T17:21:20.105Z,15.35
2023-05-12T17:23:48.765Z,15.30
2023-05-12T17:26:17.446Z,15.19
2023-05-12T17:28:47.091Z,15.16
2023-05-12T17:31:15.991Z,15.08
2023-05-12T17:33:45.090Z,15.02
2023-05-12T17:36:13.837Z,14.94
2023-05-12T17:38:42.479Z,14.88
2023-05-12T17:41:11.462Z,14.85
2023-05-12T17:43:40.162Z,14.80
2023-05-12T17:46:09.373Z,14.71
2023-05-12T17:48:38.887Z,14.68
2023-05-12T17:51:07.868Z,14.65
2023-05-12T17:53:36.406Z,14.60
2023-05-12T17:56:05.402Z,14.56
2023-05-12T17:58:34.115Z,14.50
2023-05-12T18:01:04.924Z,14.43
2023-05-12T18:03:34.885Z,14.39
2023-05-12T18:06:05.839Z,14.32
2023-05-12T18:08:34.534Z,14.24
2023-05-12T18:11:03.175Z,14.22
2023-05-12T18:13:31.836Z,14.14
2023-05-12T18:16:00.427Z,14.10
2023-05-12T18:18:29.252Z,14.01
2023-05-12T18:20:57.980Z,13.94
2023-05-12T18:23:26.734Z,13.87
2023-05-12T18:25:55.349Z,13.80
2023-05-12T18:28:24.035Z,13.75
2023-05-12T18:30:54.628Z,13.75
2023-05-12T18:33:24.862Z,13.66
2023-05-12T18:35:53.568Z,13.61
2023-05-12T18:38:22.182Z,13.58
2023-05-12T18:40:50.760Z,13.55
2023-05-12T18:43:19.483Z,13.50
2023-05-12T18:45:49.117Z,13.42
2023-05-12T18:48:17.849Z,13.38
2023-05-12T18:50:51.945Z,13.32
2023-05-12T18:53:20.647Z,13.26
2023-05-12T18:55:50.602Z,13.18
2023-05-12T18:58:19.401Z,13.13
2023-05-12T19:00:48.095Z,13.09
2023-05-12T19:03:16.716Z,13.02
2023-05-12T19:05:46.473Z,12.99
2023-05-12T19:08:16.140Z,13.00
2023-05-12T19:10:45.680Z,12.97
2023-05-12T19:13:14.305Z,12.96
2023-05-12T19:15:42.827Z,12.90
2023-05-12T19:18:11.573Z,12.86
2023-05-12T19:20:40.382Z,12.88
2023-05-12T19:23:09.754Z,12.89
2023-05-12T19:25:42.848Z,12.84
2023-05-12T19:28:12.257Z,12.75
2023-05-12T19:30:41.137Z,12.69
2023-05-12T19:33:09.814Z,12.63
2023-05-12T19:35:39.140Z,12.68
2023-05-12T19:38:07.827Z,12.63
2023-05-12T19:40:36.535Z,12.61
2023-05-12T19:43:10.229Z,12.53
2023-05-12T19:45:39.736Z,12.40
2023-05-12T19:48:08.630Z,12.35
2023-05-12T19:50:37.370Z,12.32
2023-05-12T19:53:05.915Z,12.28
2023-05-12T19:55:34.496Z,12.19
2023-05-12T19:58:03.224Z,12.16
2023-05-12T20:00:31.943Z,12.13
2023-05-12T20:03:00.653Z,12.11
2023-05-12T20:05:29.442Z,12.12
2023-05-12T20:07:57.942Z,12.10
2023-05-12T20:10:26.759Z,12.09
2023-05-12T20:12:55.566Z,12.06
2023-05-12T20:15:24.290Z,12.01
2023-05-12T20:17:53.023Z,11.99
2023-05-12T20:20:22.107Z,11.98
2023-05-12T20:22:50.883Z,11.92
2023-05-12T20:25:19.968Z,11.91
2023-05-12T20:27:48.991Z,11.96
2023-05-12T20:30:17.664Z,11.97
2023-05-12T20:32:46.276Z,11.94
2023-05-12T20:35:15.974Z,11.90
2023-05-12T20:37:44.858Z,11.84
2023-05-12T20:40:13.640Z,11.74
2023-05-12T20:42:44.076Z,11.70
2023-05-12T20:45:14.345Z,11.64
2023-05-12T20:47:42.980Z,11.65
2023-05-12T20:54:00.717Z,11.53
2023-05-12T20:56:29.526Z,11.51
2023-05-12T20:58:58.311Z,11.45
2023-05-12T21:01:27.273Z,11.46
2023-05-12T21:03:55.897Z,11.41
2023-05-12T21:06:24.743Z,11.34
2023-05-12T21:08:53.417Z,11.26
2023-05-12T21:11:22.486Z,11.26
2023-05-12T21:13:50.984Z,11.17
2023-05-12T21:16:19.614Z,11.08
2023-05-12T21:18:48.826Z,10.96
2023-05-12T21:21:17.562Z,11.00
2023-05-12T21:23:46.557Z,11.00
2023-05-12T21:26:15.107Z,11.00
2023-05-12T21:28:43.629Z,10.99
2023-05-12T21:31:12.265Z,10.98
2023-05-12T21:33:40.984Z,10.95
2023-05-12T21:36:09.813Z,10.96
2023-05-12T21:38:38.485Z,10.91
2023-05-12T21:41:07.070Z,10.89
2023-05-12T21:43:35.672Z,10.88
2023-05-12T21:46:05.392Z,10.76
2023-05-12T21:48:34.665Z,10.74
2023-05-12T21:51:04.015Z,10.68
2023-05-12T21:53:32.902Z,10.64
2023-05-12T21:56:02.150Z,10.58
2023-05-12T21:58:30.794Z,10.54
2023-05-12T22:01:00.075Z,10.46
2023-05-12T22:03:28.700Z,10.48
2023-05-12T22:05:57.329Z,10.44
2023-05-12T22:08:25.838Z,10.43
2023-05-12T22:10:54.471Z,10.44
2023-05-12T22:13:23.119Z,10.45
2023-05-12T22:15:51.770Z,10.50
2023-05-12T22:18:20.326Z,10.50
2023-05-12T22:20:48.997Z,10.50
2023-05-12T22:23:17.625Z,10.50
2023-05-12T22:25:46.372Z,10.53
2023-05-12T22:28:14.973Z,10.58
2023-05-12T22:31:03.025Z,10.49
2023-05-12T22:33:32.551Z,10.47
2023-05-12T22:36:01.193Z,10.45
2023-05-12T22:38:29.984Z,10.43
2023-05-12T22:40:58.552Z,10.45
2023-05-12T22:43:27.336Z,10.41
2023-05-12T22:45:56.770Z,10.35
2023-05-12T22:48:25.868Z,10.33
2023-05-12T22:50:54.795Z,10.29
2023-05-12T22:53:23.435Z,10.18
2023-05-12T22:55:52.016Z,10.19
2023-05-12T22:58:20.707Z,10.21
2023-05-12T23:00:49.369Z,10.27
2023-05-12T23:03:18.067Z,10.30
2023-05-12T23:05:46.702Z,10.34
2023-05-12T23:08:15.308Z,10.37
2023-05-12T23:10:43.765Z,10.34
2023-05-12T23:13:12.450Z,10.27
2023-05-12T23:15:41.022Z,10.25
2023-05-12T23:18:09.811Z,10.13
2023-05-12T23:20:43.188Z,10.14
2023-05-12T23:23:14.771Z,10.13
2023-05-12T23:25:43.231Z,10.04
2023-05-12T23:28:11.816Z,10.03
2023-05-12T23:30:40.518Z,10.03
2023-05-12T23:33:09.231Z,10.03
2023-05-12T23:35:37.971Z,10.03
2023-05-12T23:38:06.461Z,10.10
2023-05-12T23:40:39.344Z,10.12
2023-05-12T23:43:08.630Z,10.14
2023-05-12T23:45:37.522Z,10.12
2023-05-12T23:48:06.464Z,10.12
2023-05-12T23:50:35.273Z,10.10
2023-05-12T23:53:03.871Z,10.04
2023-05-12T23:55:32.598Z,9.98
2023-05-12T23:58:01.282Z,9.95
